sensor_id;sensor_type;location;lat;lon;timestamp;temperature;humidity
15596;DHT22;7898;48.658;9.068;2022-09-09T00:02:28;12.10;99.90
15596;DHT22;7898;48.658;9.068;2022-09-09T00:05:00;12.10;99.90
15596;DHT22;7898;48.658;9.068;2022-09-09T00:07:38;12.10;99.90
15596;DHT22;7898;48.658;9.068;2022-09-09T00:10:16;12.10;99.90
15596;DHT22;7898;48.658;9.068;2022-09-09T00:12:53;12.10;99.90
15596;DHT22;7898;48.658;9.068;2022-09-09T00:15:25;12.10;99.90
15596;DHT22;7898;48.658;9.068;2022-09-09T00:17:58;12.10;99.90
15596;DHT22;7898;48.658;9.068;2022-09-09T00:20:32;12.20;99.90
15596;DHT22;7898;48.658;9.068;2022-09-09T00:23:08;12.20;99.90
15596;DHT22;7898;48.658;9.068;2022-09-09T00:25:42;12.20;99.90
15596;DHT22;7898;48.658;9.068;2022-09-09T00:28:18;12.20;99.90
15596;DHT22;7898;48.658;9.068;2022-09-09T00:30:46;12.30;99.90
15596;DHT22;7898;48.658;9.068;2022-09-09T00:33:17;12.30;99.90
15596;DHT22;7898;48.658;9.068;2022-09-09T00:35:49;12.30;99.90
15596;DHT22;7898;48.658;9.068;2022-09-09T00:38:20;12.40;99.90
15596;DHT22;7898;48.658;9.068;2022-09-09T00:40:51;12.50;99.90
15596;DHT22;7898;48.658;9.068;2022-09-09T00:43:26;12.50;99.90
15596;DHT22;7898;48.658;9.068;2022-09-09T00:46:24;12.60;99.90
15596;DHT22;7898;48.658;9.068;2022-09-09T00:49:00;12.70;99.90
15596;DHT22;7898;48.658;9.068;2022-09-09T00:51:36;12.80;99.90
15596;DHT22;7898;48.658;9.068;2022-09-09T00:54:26;12.80;99.90
15596;DHT22;7898;48.658;9.068;2022-09-09T00:57:04;12.90;99.90
15596;DHT22;7898;48.658;9.068;2022-09-09T00:59:39;12.90;99.90
15596;DHT22;7898;48.658;9.068;2022-09-09T01:02:15;12.90;99.90
15596;DHT22;7898;48.658;9.068;2022-09-09T01:04:46;13.00;99.90
15596;DHT22;7898;48.658;9.068;2022-09-09T01:07:16;13.00;99.90
15596;DHT22;7898;48.658;9.068;2022-09-09T01:09:56;13.00;99.90
15596;DHT22;7898;48.658;9.068;2022-09-09T01:12:34;13.00;99.90
15596;DHT22;7898;48.658;9.068;2022-09-09T01:15:12;12.90;99.90
15596;DHT22;7898;48.658;9.068;2022-09-09T01:17:50;13.10;99.90
15596;DHT22;7898;48.658;9.068;2022-09-09T01:20:23;12.90;99.90
15596;DHT22;7898;48.658;9.068;2022-09-09T01:23:18;12.90;99.90
15596;DHT22;7898;48.658;9.068;2022-09-09T01:26:20;12.90;99.90
15596;DHT22;7898;48.658;9.068;2022-09-09T01:28:50;12.90;99.90
15596;DHT22;7898;48.658;9.068;2022-09-09T01:31:20;12.90;99.90
15596;DHT22;7898;48.658;9.068;2022-09-09T01:33:48;12.90;99.90
15596;DHT22;7898;48.658;9.068;2022-09-09T01:36:22;12.90;99.90
15596;DHT22;7898;48.658;9.068;2022-09-09T01:38:50;12.90;99.90
15596;DHT22;7898;48.658;9.068;2022-09-09T01:41:17;12.90;99.90
15596;DHT22;7898;48.658;9.068;2022-09-09T01:43:46;12.90;99.90
15596;DHT22;7898;48.658;9.068;2022-09-09T01:46:13;12.90;99.90
15596;DHT22;7898;48.658;9.068;2022-09-09T01:48:41;12.90;99.90
15596;DHT22;7898;48.658;9.068;2022-09-09T01:51:08;12.80;99.90
15596;DHT22;7898;48.658;9.068;2022-09-09T01:53:36;12.80;99.90
15596;DHT22;7898;48.658;9.068;2022-09-09T01:56:11;12.80;99.90
15596;DHT22;7898;48.658;9.068;2022-09-09T01:58:59;12.70;99.90
15596;DHT22;7898;48.658;9.068;2022-09-09T02:01:39;12.60;99.90
15596;DHT22;7898;48.658;9.068;2022-09-09T02:04:23;12.50;99.90
15596;DHT22;7898;48.658;9.068;2022-09-09T02:06:56;12.50;99.90
15596;DHT22;7898;48.658;9.068;2022-09-09T02:09:24;12.40;99.90
15596;DHT22;7898;48.658;9.068;2022-09-09T02:11:57;12.40;99.90
15596;DHT22;7898;48.658;9.068;2022-09-09T02:14:32;12.40;99.90
15596;DHT22;7898;48.658;9.068;2022-09-09T02:17:03;12.40;99.90
15596;DHT22;7898;48.658;9.068;2022-09-09T02:19:35;12.40;99.90
15596;DHT22;7898;48.658;9.068;2022-09-09T02:22:04;12.40;99.90
15596;DHT22;7898;48.658;9.068;2022-09-09T02:24:33;12.40;99.90
15596;DHT22;7898;48.658;9.068;2022-09-09T02:27:03;12.40;99.90
15596;DHT22;7898;48.658;9.068;2022-09-09T02:29:35;12.40;99.90
15596;DHT22;7898;48.658;9.068;2022-09-09T02:32:06;12.40;99.90
15596;DHT22;7898;48.658;9.068;2022-09-09T02:34:35;12.30;99.90
15596;DHT22;7898;48.658;9.068;2022-09-09T02:37:04;12.30;99.90
15596;DHT22;7898;48.658;9.068;2022-09-09T02:39:33;12.30;99.90
15596;DHT22;7898;48.658;9.068;2022-09-09T02:42:00;12.30;99.90
15596;DHT22;7898;48.658;9.068;2022-09-09T02:44:29;12.40;99.90
15596;DHT22;7898;48.658;9.068;2022-09-09T02:47:24;12.40;99.90
15596;DHT22;7898;48.658;9.068;2022-09-09T02:50:00;12.60;99.90
15596;DHT22;7898;48.658;9.068;2022-09-09T02:52:35;12.60;99.90
15596;DHT22;7898;48.658;9.068;2022-09-09T02:55:10;12.60;99.90
15596;DHT22;7898;48.658;9.068;2022-09-09T02:57:39;12.50;99.90
15596;DHT22;7898;48.658;9.068;2022-09-09T03:00:07;12.50;99.90
15596;DHT22;7898;48.658;9.068;2022-09-09T03:02:36;12.40;99.90
15596;DHT22;7898;48.658;9.068;2022-09-09T03:05:04;12.40;99.90
15596;DHT22;7898;48.658;9.068;2022-09-09T03:07:31;12.40;99.90
15596;DHT22;7898;48.658;9.068;2022-09-09T03:09:58;12.40;99.90
15596;DHT22;7898;48.658;9.068;2022-09-09T03:12:25;12.30;99.90
15596;DHT22;7898;48.658;9.068;2022-09-09T03:14:52;12.30;99.90
15596;DHT22;7898;48.658;9.068;2022-09-09T03:17:19;12.30;99.90
15596;DHT22;7898;48.658;9.068;2022-09-09T03:19:47;12.40;99.90
15596;DHT22;7898;48.658;9.068;2022-09-09T03:22:15;12.40;99.90
15596;DHT22;7898;48.658;9.068;2022-09-09T03:24:44;12.30;99.90
15596;DHT22;7898;48.658;9.068;2022-09-09T03:27:12;12.40;99.90
15596;DHT22;7898;48.658;9.068;2022-09-09T03:29:39;12.30;99.90
15596;DHT22;7898;48.658;9.068;2022-09-09T03:32:06;12.40;99.90
15596;DHT22;7898;48.658;9.068;2022-09-09T03:34:36;12.40;99.90
15596;DHT22;7898;48.658;9.068;2022-09-09T03:37:06;12.40;99.90
15596;DHT22;7898;48.658;9.068;2022-09-09T03:39:33;12.40;99.90
15596;DHT22;7898;48.658;9.068;2022-09-09T03:42:00;12.20;99.90
15596;DHT22;7898;48.658;9.068;2022-09-09T03:44:29;12.00;99.90
15596;DHT22;7898;48.658;9.068;2022-09-09T03:46:56;12.00;99.90
15596;DHT22;7898;48.658;9.068;2022-09-09T03:49:26;11.80;99.90
15596;DHT22;7898;48.658;9.068;2022-09-09T03:51:54;11.80;99.90
15596;DHT22;7898;48.658;9.068;2022-09-09T03:54:23;11.80;99.90
15596;DHT22;7898;48.658;9.068;2022-09-09T03:56:50;11.70;99.90
15596;DHT22;7898;48.658;9.068;2022-09-09T03:59:17;11.70;99.90
15596;DHT22;7898;48.658;9.068;2022-09-09T04:01:44;11.70;99.90
15596;DHT22;7898;48.658;9.068;2022-09-09T04:04:12;11.70;99.90
15596;DHT22;7898;48.658;9.068;2022-09-09T04:06:39;11.70;99.90
15596;DHT22;7898;48.658;9.068;2022-09-09T04:09:06;11.80;99.90
15596;DHT22;7898;48.658;9.068;2022-09-09T04:11:34;11.90;99.90
15596;DHT22;7898;48.658;9.068;2022-09-09T04:14:02;11.80;99.90
15596;DHT22;7898;48.658;9.068;2022-09-09T04:16:31;11.80;99.90
15596;DHT22;7898;48.658;9.068;2022-09-09T04:18:58;11.60;99.90
15596;DHT22;7898;48.658;9.068;2022-09-09T04:21:25;11.60;99.90
15596;DHT22;7898;48.658;9.068;2022-09-09T04:23:52;11.60;99.90
15596;DHT22;7898;48.658;9.068;2022-09-09T04:26:19;11.60;99.90
15596;DHT22;7898;48.658;9.068;2022-09-09T04:28:47;11.60;99.90
15596;DHT22;7898;48.658;9.068;2022-09-09T04:31:17;11.60;99.90
15596;DHT22;7898;48.658;9.068;2022-09-09T04:33:45;11.60;99.90
15596;DHT22;7898;48.658;9.068;2022-09-09T04:36:13;11.70;99.90
15596;DHT22;7898;48.658;9.068;2022-09-09T04:38:40;11.90;99.90
15596;DHT22;7898;48.658;9.068;2022-09-09T04:41:07;12.00;99.90
15596;DHT22;7898;48.658;9.068;2022-09-09T04:43:36;12.00;99.90
15596;DHT22;7898;48.658;9.068;2022-09-09T04:46:05;12.00;99.90
15596;DHT22;7898;48.658;9.068;2022-09-09T04:48:32;12.10;99.90
15596;DHT22;7898;48.658;9.068;2022-09-09T04:51:01;12.10;99.90
15596;DHT22;7898;48.658;9.068;2022-09-09T04:53:29;12.10;99.90
15596;DHT22;7898;48.658;9.068;2022-09-09T04:56:02;12.20;99.90
15596;DHT22;7898;48.658;9.068;2022-09-09T04:58:29;12.20;99.90
15596;DHT22;7898;48.658;9.068;2022-09-09T05:01:04;12.10;99.90
15596;DHT22;7898;48.658;9.068;2022-09-09T05:03:31;12.20;99.90
15596;DHT22;7898;48.658;9.068;2022-09-09T05:06:06;12.10;99.90
15596;DHT22;7898;48.658;9.068;2022-09-09T05:08:33;12.20;99.90
15596;DHT22;7898;48.658;9.068;2022-09-09T05:11:00;12.20;99.90
15596;DHT22;7898;48.658;9.068;2022-09-09T05:13:28;12.20;99.90
15596;DHT22;7898;48.658;9.068;2022-09-09T05:15:57;12.30;99.90
15596;DHT22;7898;48.658;9.068;2022-09-09T05:18:26;12.40;99.90
15596;DHT22;7898;48.658;9.068;2022-09-09T05:20:52;12.50;99.90
15596;DHT22;7898;48.658;9.068;2022-09-09T05:23:24;12.50;99.90
15596;DHT22;7898;48.658;9.068;2022-09-09T05:25:56;12.70;99.90
15596;DHT22;7898;48.658;9.068;2022-09-09T05:28:26;12.70;99.90
15596;DHT22;7898;48.658;9.068;2022-09-09T05:30:57;12.80;99.90
15596;DHT22;7898;48.658;9.068;2022-09-09T05:33:25;12.90;99.90
15596;DHT22;7898;48.658;9.068;2022-09-09T05:35:57;13.00;99.90
15596;DHT22;7898;48.658;9.068;2022-09-09T05:38:24;13.10;99.90
15596;DHT22;7898;48.658;9.068;2022-09-09T05:40:51;13.30;99.90
15596;DHT22;7898;48.658;9.068;2022-09-09T05:43:18;13.40;99.90
15596;DHT22;7898;48.658;9.068;2022-09-09T05:45:46;13.50;99.90
15596;DHT22;7898;48.658;9.068;2022-09-09T05:48:13;13.50;99.90
15596;DHT22;7898;48.658;9.068;2022-09-09T05:50:42;13.60;99.90
15596;DHT22;7898;48.658;9.068;2022-09-09T05:53:10;13.60;99.90
15596;DHT22;7898;48.658;9.068;2022-09-09T05:55:37;13.70;99.90
15596;DHT22;7898;48.658;9.068;2022-09-09T05:58:04;13.70;99.90
15596;DHT22;7898;48.658;9.068;2022-09-09T06:00:31;13.80;99.90
15596;DHT22;7898;48.658;9.068;2022-09-09T06:02:58;13.80;99.90
15596;DHT22;7898;48.658;9.068;2022-09-09T06:05:25;13.90;99.90
15596;DHT22;7898;48.658;9.068;2022-09-09T06:07:55;14.00;99.90
15596;DHT22;7898;48.658;9.068;2022-09-09T06:10:22;14.00;99.90
15596;DHT22;7898;48.658;9.068;2022-09-09T06:12:52;14.10;99.90
15596;DHT22;7898;48.658;9.068;2022-09-09T06:15:18;14.20;99.90
15596;DHT22;7898;48.658;9.068;2022-09-09T06:17:45;14.20;99.90
15596;DHT22;7898;48.658;9.068;2022-09-09T06:20:12;14.30;99.90
15596;DHT22;7898;48.658;9.068;2022-09-09T06:22:39;14.30;99.90
15596;DHT22;7898;48.658;9.068;2022-09-09T06:25:09;14.40;99.90
15596;DHT22;7898;48.658;9.068;2022-09-09T06:27:36;14.50;99.90
15596;DHT22;7898;48.658;9.068;2022-09-09T06:30:03;14.50;99.90
15596;DHT22;7898;48.658;9.068;2022-09-09T06:32:30;14.60;99.90
15596;DHT22;7898;48.658;9.068;2022-09-09T06:35:00;14.70;99.90
15596;DHT22;7898;48.658;9.068;2022-09-09T06:37:27;14.80;99.90
15596;DHT22;7898;48.658;9.068;2022-09-09T06:39:54;14.80;99.90
15596;DHT22;7898;48.658;9.068;2022-09-09T06:42:23;14.90;99.90
15596;DHT22;7898;48.658;9.068;2022-09-09T06:44:49;15.10;99.90
15596;DHT22;7898;48.658;9.068;2022-09-09T06:47:17;15.20;99.90
15596;DHT22;7898;48.658;9.068;2022-09-09T06:49:44;15.30;99.90
15596;DHT22;7898;48.658;9.068;2022-09-09T06:52:11;15.50;99.90
15596;DHT22;7898;48.658;9.068;2022-09-09T06:54:38;15.50;99.90
15596;DHT22;7898;48.658;9.068;2022-09-09T06:57:05;15.70;99.90
15596;DHT22;7898;48.658;9.068;2022-09-09T06:59:34;15.90;99.90
15596;DHT22;7898;48.658;9.068;2022-09-09T07:02:01;15.90;99.90
15596;DHT22;7898;48.658;9.068;2022-09-09T07:04:28;15.90;99.90
15596;DHT22;7898;48.658;9.068;2022-09-09T07:06:55;16.00;99.90
15596;DHT22;7898;48.658;9.068;2022-09-09T07:09:22;16.10;99.90
15596;DHT22;7898;48.658;9.068;2022-09-09T07:11:51;16.20;99.90
15596;DHT22;7898;48.658;9.068;2022-09-09T07:14:18;16.30;99.90
15596;DHT22;7898;48.658;9.068;2022-09-09T07:16:47;16.40;99.90
15596;DHT22;7898;48.658;9.068;2022-09-09T07:19:14;16.50;99.90
15596;DHT22;7898;48.658;9.068;2022-09-09T07:21:41;16.60;99.90
15596;DHT22;7898;48.658;9.068;2022-09-09T07:24:09;16.70;99.90
15596;DHT22;7898;48.658;9.068;2022-09-09T07:26:37;16.70;99.90
15596;DHT22;7898;48.658;9.068;2022-09-09T07:29:04;16.80;99.90
15596;DHT22;7898;48.658;9.068;2022-09-09T07:31:33;17.10;99.90
15596;DHT22;7898;48.658;9.068;2022-09-09T07:34:03;17.70;99.90
15596;DHT22;7898;48.658;9.068;2022-09-09T07:36:31;18.40;99.90
15596;DHT22;7898;48.658;9.068;2022-09-09T07:38:59;19.10;99.90
15596;DHT22;7898;48.658;9.068;2022-09-09T07:41:32;20.10;99.90
15596;DHT22;7898;48.658;9.068;2022-09-09T07:44:03;20.70;99.90
15596;DHT22;7898;48.658;9.068;2022-09-09T07:46:30;20.90;99.90
15596;DHT22;7898;48.658;9.068;2022-09-09T07:48:57;21.20;99.90
15596;DHT22;7898;48.658;9.068;2022-09-09T07:51:27;21.40;99.90
15596;DHT22;7898;48.658;9.068;2022-09-09T07:53:56;21.50;99.90
15596;DHT22;7898;48.658;9.068;2022-09-09T07:56:25;21.30;99.90
15596;DHT22;7898;48.658;9.068;2022-09-09T07:58:53;21.20;99.90
15596;DHT22;7898;48.658;9.068;2022-09-09T08:01:23;21.60;99.90
15596;DHT22;7898;48.658;9.068;2022-09-09T08:03:54;22.30;99.90
15596;DHT22;7898;48.658;9.068;2022-09-09T08:06:26;23.00;99.90
15596;DHT22;7898;48.658;9.068;2022-09-09T08:08:54;23.30;99.90
15596;DHT22;7898;48.658;9.068;2022-09-09T08:11:23;23.70;99.90
15596;DHT22;7898;48.658;9.068;2022-09-09T08:13:51;24.30;99.90
15596;DHT22;7898;48.658;9.068;2022-09-09T08:16:20;24.50;99.90
15596;DHT22;7898;48.658;9.068;2022-09-09T08:18:48;24.90;99.90
15596;DHT22;7898;48.658;9.068;2022-09-09T08:21:19;25.20;99.90
15596;DHT22;7898;48.658;9.068;2022-09-09T08:23:49;25.20;99.90
15596;DHT22;7898;48.658;9.068;2022-09-09T08:26:19;24.80;99.90
15596;DHT22;7898;48.658;9.068;2022-09-09T08:28:49;24.60;99.90
15596;DHT22;7898;48.658;9.068;2022-09-09T08:31:20;24.40;99.90
15596;DHT22;7898;48.658;9.068;2022-09-09T08:33:47;24.30;99.90
15596;DHT22;7898;48.658;9.068;2022-09-09T08:36:17;24.50;99.90
15596;DHT22;7898;48.658;9.068;2022-09-09T08:38:48;24.60;99.90
15596;DHT22;7898;48.658;9.068;2022-09-09T08:41:30;24.70;99.90
15596;DHT22;7898;48.658;9.068;2022-09-09T08:44:02;24.60;99.90
15596;DHT22;7898;48.658;9.068;2022-09-09T08:46:36;24.80;99.90
15596;DHT22;7898;48.658;9.068;2022-09-09T08:49:16;24.70;99.90
15596;DHT22;7898;48.658;9.068;2022-09-09T08:51:45;24.60;99.90
15596;DHT22;7898;48.658;9.068;2022-09-09T08:54:13;24.70;99.90
15596;DHT22;7898;48.658;9.068;2022-09-09T08:56:40;24.50;99.90
15596;DHT22;7898;48.658;9.068;2022-09-09T08:59:11;24.70;99.90
15596;DHT22;7898;48.658;9.068;2022-09-09T09:01:51;24.70;99.90
15596;DHT22;7898;48.658;9.068;2022-09-09T09:04:31;25.10;99.90
15596;DHT22;7898;48.658;9.068;2022-09-09T09:07:07;25.20;99.90
15596;DHT22;7898;48.658;9.068;2022-09-09T09:09:42;25.00;99.90
15596;DHT22;7898;48.658;9.068;2022-09-09T09:12:16;24.10;99.90
15596;DHT22;7898;48.658;9.068;2022-09-09T09:14:46;22.70;99.90
15596;DHT22;7898;48.658;9.068;2022-09-09T09:17:16;20.80;99.90
15596;DHT22;7898;48.658;9.068;2022-09-09T09:19:44;19.10;99.90
15596;DHT22;7898;48.658;9.068;2022-09-09T09:22:17;18.10;99.90
15596;DHT22;7898;48.658;9.068;2022-09-09T09:24:51;17.40;99.90
15596;DHT22;7898;48.658;9.068;2022-09-09T09:27:25;17.30;99.90
15596;DHT22;7898;48.658;9.068;2022-09-09T09:29:55;17.30;99.90
15596;DHT22;7898;48.658;9.068;2022-09-09T09:32:33;17.60;99.90
15596;DHT22;7898;48.658;9.068;2022-09-09T09:35:02;17.70;99.90
15596;DHT22;7898;48.658;9.068;2022-09-09T09:37:33;18.00;99.90
15596;DHT22;7898;48.658;9.068;2022-09-09T09:40:10;18.30;99.90
15596;DHT22;7898;48.658;9.068;2022-09-09T09:42:38;18.40;99.90
15596;DHT22;7898;48.658;9.068;2022-09-09T09:45:17;18.60;99.90
15596;DHT22;7898;48.658;9.068;2022-09-09T09:47:58;18.90;99.90
15596;DHT22;7898;48.658;9.068;2022-09-09T09:50:25;19.10;99.90
15596;DHT22;7898;48.658;9.068;2022-09-09T09:52:56;19.20;99.90
15596;DHT22;7898;48.658;9.068;2022-09-09T09:55:25;19.10;99.90
15596;DHT22;7898;48.658;9.068;2022-09-09T09:57:53;19.00;99.90
15596;DHT22;7898;48.658;9.068;2022-09-09T10:00:21;19.00;99.90
15596;DHT22;7898;48.658;9.068;2022-09-09T10:02:49;19.10;99.90
15596;DHT22;7898;48.658;9.068;2022-09-09T10:05:19;19.50;99.90
15596;DHT22;7898;48.658;9.068;2022-09-09T10:07:47;19.80;99.90
15596;DHT22;7898;48.658;9.068;2022-09-09T10:10:38;20.10;99.90
15596;DHT22;7898;48.658;9.068;2022-09-09T10:13:11;20.60;99.90
15596;DHT22;7898;48.658;9.068;2022-09-09T10:15:45;21.00;99.90
15596;DHT22;7898;48.658;9.068;2022-09-09T10:18:30;21.20;99.90
15596;DHT22;7898;48.658;9.068;2022-09-09T10:21:06;21.40;99.90
15596;DHT22;7898;48.658;9.068;2022-09-09T10:23:52;21.50;99.90
15596;DHT22;7898;48.658;9.068;2022-09-09T10:26:35;21.40;99.90
15596;DHT22;7898;48.658;9.068;2022-09-09T10:29:22;21.40;99.90
15596;DHT22;7898;48.658;9.068;2022-09-09T10:32:00;21.10;99.90
15596;DHT22;7898;48.658;9.068;2022-09-09T10:34:50;20.90;99.90
15596;DHT22;7898;48.658;9.068;2022-09-09T10:37:33;20.90;99.90
15596;DHT22;7898;48.658;9.068;2022-09-09T10:40:12;20.90;99.90
15596;DHT22;7898;48.658;9.068;2022-09-09T10:42:43;21.20;99.90
15596;DHT22;7898;48.658;9.068;2022-09-09T10:45:17;21.40;99.90
15596;DHT22;7898;48.658;9.068;2022-09-09T10:47:58;21.60;99.90
15596;DHT22;7898;48.658;9.068;2022-09-09T10:50:40;21.60;99.90
15596;DHT22;7898;48.658;9.068;2022-09-09T10:53:14;21.60;99.90
15596;DHT22;7898;48.658;9.068;2022-09-09T10:55:49;21.50;99.90
15596;DHT22;7898;48.658;9.068;2022-09-09T10:58:24;21.30;99.90
15596;DHT22;7898;48.658;9.068;2022-09-09T11:00:54;21.10;99.90
15596;DHT22;7898;48.658;9.068;2022-09-09T11:03:26;20.90;99.90
15596;DHT22;7898;48.658;9.068;2022-09-09T11:05:57;20.70;99.90
15596;DHT22;7898;48.658;9.068;2022-09-09T11:08:28;20.50;99.90
15596;DHT22;7898;48.658;9.068;2022-09-09T11:11:00;20.40;99.90
15596;DHT22;7898;48.658;9.068;2022-09-09T11:13:35;20.20;99.90
15596;DHT22;7898;48.658;9.068;2022-09-09T11:16:14;19.90;99.90
15596;DHT22;7898;48.658;9.068;2022-09-09T11:18:44;19.60;99.90
15596;DHT22;7898;48.658;9.068;2022-09-09T11:21:20;19.30;99.90
15596;DHT22;7898;48.658;9.068;2022-09-09T11:23:51;19.20;99.90
15596;DHT22;7898;48.658;9.068;2022-09-09T11:26:30;18.90;99.90
15596;DHT22;7898;48.658;9.068;2022-09-09T11:29:16;18.60;99.90
15596;DHT22;7898;48.658;9.068;2022-09-09T11:31:58;18.60;99.90
15596;DHT22;7898;48.658;9.068;2022-09-09T11:34:39;18.60;99.90
15596;DHT22;7898;48.658;9.068;2022-09-09T11:37:23;18.60;99.90
15596;DHT22;7898;48.658;9.068;2022-09-09T11:40:20;18.60;99.90
15596;DHT22;7898;48.658;9.068;2022-09-09T11:43:02;18.60;99.90
15596;DHT22;7898;48.658;9.068;2022-09-09T11:45:33;18.60;99.90
15596;DHT22;7898;48.658;9.068;2022-09-09T11:48:02;18.60;99.90
15596;DHT22;7898;48.658;9.068;2022-09-09T11:50:38;18.70;99.90
15596;DHT22;7898;48.658;9.068;2022-09-09T11:53:22;18.70;99.90
15596;DHT22;7898;48.658;9.068;2022-09-09T11:56:04;18.70;99.90
15596;DHT22;7898;48.658;9.068;2022-09-09T11:58:38;18.60;99.90
15596;DHT22;7898;48.658;9.068;2022-09-09T12:01:38;18.60;99.90
15596;DHT22;7898;48.658;9.068;2022-09-09T12:04:30;18.70;99.90
15596;DHT22;7898;48.658;9.068;2022-09-09T12:07:00;18.80;99.90
15596;DHT22;7898;48.658;9.068;2022-09-09T12:09:32;18.90;99.90
15596;DHT22;7898;48.658;9.068;2022-09-09T12:12:17;19.00;99.90
15596;DHT22;7898;48.658;9.068;2022-09-09T12:14:56;19.00;99.90
15596;DHT22;7898;48.658;9.068;2022-09-09T12:17:27;19.30;99.90
15596;DHT22;7898;48.658;9.068;2022-09-09T12:20:04;19.50;99.90
15596;DHT22;7898;48.658;9.068;2022-09-09T12:22:40;19.80;99.90
15596;DHT22;7898;48.658;9.068;2022-09-09T12:25:17;19.90;99.90
15596;DHT22;7898;48.658;9.068;2022-09-09T12:27:56;19.80;99.90
15596;DHT22;7898;48.658;9.068;2022-09-09T12:30:29;19.90;99.90
15596;DHT22;7898;48.658;9.068;2022-09-09T12:33:10;20.10;99.90
15596;DHT22;7898;48.658;9.068;2022-09-09T12:35:38;19.90;99.90
15596;DHT22;7898;48.658;9.068;2022-09-09T12:38:12;19.70;99.90
15596;DHT22;7898;48.658;9.068;2022-09-09T12:40:39;20.00;99.90
15596;DHT22;7898;48.658;9.068;2022-09-09T12:43:17;20.10;99.90
15596;DHT22;7898;48.658;9.068;2022-09-09T12:45:45;20.30;99.90
15596;DHT22;7898;48.658;9.068;2022-09-09T12:48:17;20.20;99.90
15596;DHT22;7898;48.658;9.068;2022-09-09T12:50:47;20.00;99.90
15596;DHT22;7898;48.658;9.068;2022-09-09T12:53:23;19.90;99.90
15596;DHT22;7898;48.658;9.068;2022-09-09T12:55:54;19.80;99.90
15596;DHT22;7898;48.658;9.068;2022-09-09T12:58:22;19.80;99.90
15596;DHT22;7898;48.658;9.068;2022-09-09T13:00:51;19.60;99.90
15596;DHT22;7898;48.658;9.068;2022-09-09T13:03:22;19.60;99.90
15596;DHT22;7898;48.658;9.068;2022-09-09T13:05:51;19.60;99.90
15596;DHT22;7898;48.658;9.068;2022-09-09T13:08:18;19.70;99.90
15596;DHT22;7898;48.658;9.068;2022-09-09T13:10:48;19.80;99.90
15596;DHT22;7898;48.658;9.068;2022-09-09T13:13:22;20.00;99.90
15596;DHT22;7898;48.658;9.068;2022-09-09T13:15:52;20.40;99.90
15596;DHT22;7898;48.658;9.068;2022-09-09T13:18:23;20.90;99.90
15596;DHT22;7898;48.658;9.068;2022-09-09T13:20:50;21.10;99.90
15596;DHT22;7898;48.658;9.068;2022-09-09T13:23:19;21.40;99.90
15596;DHT22;7898;48.658;9.068;2022-09-09T13:25:54;21.60;99.90
15596;DHT22;7898;48.658;9.068;2022-09-09T13:28:23;21.70;99.90
15596;DHT22;7898;48.658;9.068;2022-09-09T13:30:58;21.80;99.90
15596;DHT22;7898;48.658;9.068;2022-09-09T13:33:32;21.60;99.90
15596;DHT22;7898;48.658;9.068;2022-09-09T13:36:02;21.50;99.90
15596;DHT22;7898;48.658;9.068;2022-09-09T13:38:32;21.40;99.90
15596;DHT22;7898;48.658;9.068;2022-09-09T13:41:01;21.60;99.90
15596;DHT22;7898;48.658;9.068;2022-09-09T13:43:31;22.00;99.90
15596;DHT22;7898;48.658;9.068;2022-09-09T13:46:02;22.30;99.90
15596;DHT22;7898;48.658;9.068;2022-09-09T13:48:30;22.60;99.90
15596;DHT22;7898;48.658;9.068;2022-09-09T13:51:00;22.80;99.90
15596;DHT22;7898;48.658;9.068;2022-09-09T13:53:27;23.10;99.90
15596;DHT22;7898;48.658;9.068;2022-09-09T13:55:54;23.40;99.90
15596;DHT22;7898;48.658;9.068;2022-09-09T13:58:22;23.70;99.90
15596;DHT22;7898;48.658;9.068;2022-09-09T14:00:50;23.70;99.90
15596;DHT22;7898;48.658;9.068;2022-09-09T14:03:18;23.60;99.90
15596;DHT22;7898;48.658;9.068;2022-09-09T14:05:47;24.00;99.90
15596;DHT22;7898;48.658;9.068;2022-09-09T14:08:24;24.60;99.90
15596;DHT22;7898;48.658;9.068;2022-09-09T14:10:52;25.10;99.90
15596;DHT22;7898;48.658;9.068;2022-09-09T14:13:23;25.40;99.90
15596;DHT22;7898;48.658;9.068;2022-09-09T14:15:50;25.30;99.90
15596;DHT22;7898;48.658;9.068;2022-09-09T14:18:18;24.80;99.90
15596;DHT22;7898;48.658;9.068;2022-09-09T14:20:46;24.30;99.90
15596;DHT22;7898;48.658;9.068;2022-09-09T14:23:13;24.50;99.90
15596;DHT22;7898;48.658;9.068;2022-09-09T14:25:41;24.90;99.90
15596;DHT22;7898;48.658;9.068;2022-09-09T14:28:13;25.20;99.90
15596;DHT22;7898;48.658;9.068;2022-09-09T14:30:40;25.50;99.90
15596;DHT22;7898;48.658;9.068;2022-09-09T14:33:11;25.70;99.60
15596;DHT22;7898;48.658;9.068;2022-09-09T14:35:38;26.10;99.20
15596;DHT22;7898;48.658;9.068;2022-09-09T14:38:08;26.40;98.30
15596;DHT22;7898;48.658;9.068;2022-09-09T14:40:36;27.00;97.90
15596;DHT22;7898;48.658;9.068;2022-09-09T14:43:04;27.40;96.20
15596;DHT22;7898;48.658;9.068;2022-09-09T14:45:31;27.80;96.80
15596;DHT22;7898;48.658;9.068;2022-09-09T14:47:58;28.10;95.60
15596;DHT22;7898;48.658;9.068;2022-09-09T14:50:25;28.50;95.70
15596;DHT22;7898;48.658;9.068;2022-09-09T14:52:52;28.40;94.20
15596;DHT22;7898;48.658;9.068;2022-09-09T14:55:20;28.40;94.90
15596;DHT22;7898;48.658;9.068;2022-09-09T14:57:47;28.30;94.30
15596;DHT22;7898;48.658;9.068;2022-09-09T15:00:14;27.80;95.40
15596;DHT22;7898;48.658;9.068;2022-09-09T15:02:41;27.70;96.10
15596;DHT22;7898;48.658;9.068;2022-09-09T15:05:09;28.00;96.50
15596;DHT22;7898;48.658;9.068;2022-09-09T15:07:36;28.30;94.60
15596;DHT22;7898;48.658;9.068;2022-09-09T15:10:04;28.20;94.30
15596;DHT22;7898;48.658;9.068;2022-09-09T15:12:33;27.50;95.40
15596;DHT22;7898;48.658;9.068;2022-09-09T15:15:02;26.70;96.20
15596;DHT22;7898;48.658;9.068;2022-09-09T15:17:29;26.10;97.10
15596;DHT22;7898;48.658;9.068;2022-09-09T15:19:55;26.20;97.60
15596;DHT22;7898;48.658;9.068;2022-09-09T15:22:23;26.50;97.40
15596;DHT22;7898;48.658;9.068;2022-09-09T15:24:50;26.60;96.40
15596;DHT22;7898;48.658;9.068;2022-09-09T15:27:16;26.10;97.10
15596;DHT22;7898;48.658;9.068;2022-09-09T15:29:45;25.00;97.90
15596;DHT22;7898;48.658;9.068;2022-09-09T15:32:12;24.00;98.80
15596;DHT22;7898;48.658;9.068;2022-09-09T15:34:39;23.30;99.50
15596;DHT22;7898;48.658;9.068;2022-09-09T15:37:06;22.80;99.60
15596;DHT22;7898;48.658;9.068;2022-09-09T15:39:33;22.20;99.80
15596;DHT22;7898;48.658;9.068;2022-09-09T15:42:00;21.80;99.90
15596;DHT22;7898;48.658;9.068;2022-09-09T15:44:27;21.40;99.90
15596;DHT22;7898;48.658;9.068;2022-09-09T15:46:55;21.00;99.90
15596;DHT22;7898;48.658;9.068;2022-09-09T15:49:24;20.70;99.90
15596;DHT22;7898;48.658;9.068;2022-09-09T15:51:52;20.40;99.90
15596;DHT22;7898;48.658;9.068;2022-09-09T15:54:21;20.20;99.90
15596;DHT22;7898;48.658;9.068;2022-09-09T15:56:51;20.00;99.90
15596;DHT22;7898;48.658;9.068;2022-09-09T15:59:20;19.90;99.90
15596;DHT22;7898;48.658;9.068;2022-09-09T16:01:47;19.90;99.90
15596;DHT22;7898;48.658;9.068;2022-09-09T16:04:18;19.80;99.90
15596;DHT22;7898;48.658;9.068;2022-09-09T16:06:49;19.70;99.90
15596;DHT22;7898;48.658;9.068;2022-09-09T16:09:17;19.70;99.90
15596;DHT22;7898;48.658;9.068;2022-09-09T16:11:44;19.70;99.90